createdAt,value
2019-05-10T00:00:28.029Z,8.80
2019-05-10T00:03:14.590Z,8.70
2019-05-10T00:06:01.150Z,8.70
2019-05-10T00:08:47.582Z,8.60
2019-05-10T00:11:26.892Z,8.60
2019-05-10T00:14:13.144Z,8.50
2019-05-10T00:16:41.580Z,8.50
2019-05-10T00:19:10.037Z,8.50
2019-05-10T00:21:38.412Z,8.50
2019-05-10T00:24:06.808Z,8.40
2019-05-10T00:26:35.197Z,8.40
2019-05-10T00:29:03.644Z,8.30
2019-05-10T00:31:32.060Z,8.20
2019-05-10T00:34:00.455Z,8.10
2019-05-10T00:36:29.076Z,8.00
2019-05-10T00:38:57.527Z,7.90
2019-05-10T00:41:25.902Z,7.80
2019-05-10T00:43:54.287Z,7.80
2019-05-10T00:46:22.680Z,7.70
2019-05-10T00:48:51.308Z,7.70
2019-05-10T00:51:19.938Z,7.60
2019-05-10T00:53:48.327Z,7.50
2019-05-10T00:56:16.731Z,7.50
2019-05-10T00:58:45.119Z,7.40
2019-05-10T01:01:14.080Z,7.30
2019-05-10T01:03:42.521Z,7.20
2019-05-10T01:06:10.921Z,7.20
2019-05-10T01:08:39.324Z,7.10
2019-05-10T01:11:07.703Z,7.00
2019-05-10T01:13:36.091Z,6.80
2019-05-10T01:16:04.734Z,6.90
2019-05-10T01:18:33.117Z,6.90
2019-05-10T01:21:01.513Z,6.90
2019-05-10T01:23:29.937Z,6.90
2019-05-10T01:25:58.574Z,6.90
2019-05-10T01:28:26.982Z,6.90
2019-05-10T01:30:55.386Z,6.80
2019-05-10T01:33:23.783Z,6.80
2019-05-10T01:35:52.174Z,6.90
2019-05-10T01:38:20.578Z,6.80
2019-05-10T01:40:48.995Z,6.90
2019-05-10T01:43:17.386Z,7.00
2019-05-10T01:45:45.810Z,7.00
2019-05-10T01:48:14.208Z,7.00
2019-05-10T01:50:43.751Z,7.00
2019-05-10T01:53:12.159Z,7.00
2019-05-10T01:55:51.603Z,7.00
2019-05-10T01:58:10.682Z,6.90
2019-05-10T02:00:39.083Z,6.80
2019-05-10T02:03:07.539Z,6.80
2019-05-10T02:05:35.932Z,6.80
2019-05-10T02:08:04.405Z,6.80
2019-05-10T02:10:32.802Z,6.70
2019-05-10T02:13:01.191Z,6.70
2019-05-10T02:15:29.838Z,6.70
2019-05-10T02:17:58.231Z,6.60
2019-05-10T02:20:26.864Z,6.70
2019-05-10T02:22:55.255Z,6.70
2019-05-10T02:25:23.649Z,6.70
2019-05-10T02:27:52.050Z,6.60
2019-05-10T02:30:20.619Z,6.60
2019-05-10T02:32:49.017Z,6.60
2019-05-10T02:35:19.007Z,6.60
2019-05-10T02:37:47.399Z,6.60
2019-05-10T02:40:15.934Z,6.60
2019-05-10T02:42:44.344Z,6.70
2019-05-10T02:45:12.905Z,6.70
2019-05-10T02:47:41.299Z,6.80
2019-05-10T02:50:10.164Z,6.80
2019-05-10T02:52:38.816Z,6.90
2019-05-10T02:55:07.328Z,6.90
2019-05-10T02:57:37.151Z,6.90
2019-05-10T03:00:06.591Z,7.00
2019-05-10T03:02:36.048Z,7.00
2019-05-10T03:05:06.371Z,7.00
2019-05-10T03:07:37.271Z,6.90
2019-05-10T03:10:10.426Z,6.90
2019-05-10T03:12:41.613Z,6.90
2019-05-10T03:15:12.840Z,7.00
2019-05-10T03:17:41.799Z,7.00
2019-05-10T03:20:10.921Z,6.90
2019-05-10T03:22:41.210Z,7.00
2019-05-10T03:25:09.613Z,6.90
2019-05-10T03:27:38.332Z,6.90
2019-05-10T03:30:07.465Z,7.00
2019-05-10T03:32:35.874Z,7.00
2019-05-10T03:35:06.256Z,7.00
2019-05-10T03:37:34.794Z,7.10
2019-05-10T03:40:05.137Z,7.10
2019-05-10T03:42:33.519Z,7.20
2019-05-10T03:45:01.923Z,7.20
2019-05-10T03:47:30.294Z,7.20
2019-05-10T03:49:58.925Z,7.20
2019-05-10T03:52:27.355Z,7.30
2019-05-10T03:54:55.791Z,7.30
2019-05-10T03:57:24.468Z,7.30
2019-05-10T03:59:52.860Z,7.30
2019-05-10T04:02:21.255Z,7.20
2019-05-10T04:04:49.683Z,7.30
2019-05-10T04:07:18.099Z,7.20
2019-05-10T04:09:46.539Z,7.20
2019-05-10T04:12:14.929Z,7.20
2019-05-10T04:14:43.339Z,7.20
2019-05-10T04:17:11.763Z,7.20
2019-05-10T04:19:40.445Z,7.20
2019-05-10T04:22:08.832Z,7.30
2019-05-10T04:24:37.239Z,7.40
2019-05-10T04:27:05.634Z,7.40
2019-05-10T04:29:34.020Z,7.40
2019-05-10T04:32:02.399Z,7.50
2019-05-10T04:34:31.042Z,7.50
2019-05-10T04:36:59.435Z,7.50
2019-05-10T04:39:27.850Z,7.60
2019-05-10T04:41:56.485Z,7.70
2019-05-10T04:44:24.878Z,7.70
2019-05-10T04:46:53.283Z,7.70
2019-05-10T04:49:21.663Z,7.80
2019-05-10T04:51:50.069Z,7.90
2019-05-10T04:54:18.455Z,7.90
2019-05-10T04:56:46.847Z,8.00
2019-05-10T04:59:15.483Z,8.00
2019-05-10T05:01:43.952Z,8.10
2019-05-10T05:04:12.435Z,8.20
2019-05-10T05:06:40.835Z,8.20
2019-05-10T05:09:09.228Z,8.30
2019-05-10T05:11:37.863Z,8.30
2019-05-10T05:14:09.427Z,8.40
2019-05-10T05:16:36.638Z,8.40
2019-05-10T05:19:05.104Z,8.50
2019-05-10T05:21:33.487Z,8.50
2019-05-10T05:24:01.955Z,8.50
2019-05-10T05:26:30.343Z,8.40
2019-05-10T05:28:58.740Z,8.50
2019-05-10T05:31:27.154Z,8.50
2019-05-10T05:33:59.166Z,8.50
2019-05-10T05:36:25.684Z,8.50
2019-05-10T05:38:54.076Z,8.60
2019-05-10T05:41:22.462Z,8.60
2019-05-10T05:43:50.886Z,8.60
2019-05-10T05:46:19.277Z,8.70
2019-05-10T05:48:51.177Z,8.90
2019-05-10T05:51:17.807Z,9.10
2019-05-10T05:53:46.218Z,9.00
2019-05-10T05:56:14.907Z,9.10
2019-05-10T05:58:44.480Z,9.10
2019-05-10T06:01:24.271Z,9.20
2019-05-10T06:03:43.682Z,9.20
2019-05-10T06:06:20.498Z,9.20
2019-05-10T06:08:42.499Z,9.30
2019-05-10T06:11:10.899Z,9.50
2019-05-10T06:16:27.493Z,9.70
2019-05-10T06:18:55.906Z,9.80
2019-05-10T06:21:26.657Z,9.90
2019-05-10T06:23:54.460Z,9.90
2019-05-10T06:26:28.374Z,9.80
2019-05-10T06:28:59.473Z,9.80
2019-05-10T06:31:23.144Z,9.90
2019-05-10T06:33:51.545Z,9.70
2019-05-10T06:36:19.956Z,9.60
2019-05-10T06:38:48.355Z,9.70
2019-05-10T06:41:19.113Z,9.90
2019-05-10T06:43:51.385Z,9.90
2019-05-10T06:46:17.037Z,10.10
2019-05-10T06:48:45.446Z,10.10
2019-05-10T06:51:14.085Z,10.00
2019-05-10T06:53:52.217Z,10.10
2019-05-10T06:56:12.614Z,10.00
2019-05-10T06:58:41.026Z,10.00
2019-05-10T07:01:09.425Z,9.90
2019-05-10T07:03:37.832Z,10.00
2019-05-10T07:06:06.238Z,10.00
2019-05-10T07:08:43.789Z,10.10
2019-05-10T07:11:04.774Z,10.20
2019-05-10T07:13:33.417Z,10.20
2019-05-10T07:16:02.127Z,10.10
2019-05-10T07:18:30.539Z,10.20
2019-05-10T07:21:00.947Z,10.30
2019-05-10T07:23:30.220Z,10.40
2019-05-10T07:25:59.014Z,10.60
2019-05-10T07:28:27.410Z,10.60
2019-05-10T07:30:55.831Z,10.70
2019-05-10T07:33:24.229Z,10.90
2019-05-10T07:35:52.683Z,10.90
2019-05-10T07:38:23.851Z,11.00
2019-05-10T07:40:51.217Z,11.10
2019-05-10T07:43:26.324Z,11.10
2019-05-10T07:45:49.738Z,11.10
2019-05-10T07:48:18.138Z,11.30
2019-05-10T07:50:49.761Z,11.30
2019-05-10T07:53:23.115Z,11.30
2019-05-10T07:55:47.059Z,11.50
2019-05-10T07:58:15.457Z,11.60
2019-05-10T08:00:46.582Z,11.50
2019-05-10T08:03:18.814Z,11.80
2019-05-10T08:05:46.282Z,12.30
2019-05-10T08:08:15.014Z,12.50
2019-05-10T08:10:43.414Z,12.30
2019-05-10T08:13:15.326Z,12.40
2019-05-10T08:15:41.994Z,12.00
2019-05-10T08:18:10.417Z,12.00
2019-05-10T08:20:49.370Z,12.00
2019-05-10T08:23:09.189Z,12.10
2019-05-10T08:25:44.368Z,12.20
2019-05-10T08:28:07.972Z,12.40
2019-05-10T08:30:51.362Z,12.70
2019-05-10T08:33:14.495Z,12.60
2019-05-10T08:35:45.880Z,12.40
2019-05-10T08:38:13.063Z,12.50
2019-05-10T08:40:42.856Z,12.70
2019-05-10T08:43:16.027Z,12.30
2019-05-10T08:45:44.874Z,11.90
2019-05-10T08:48:12.735Z,12.10
2019-05-10T08:50:53.329Z,12.40
2019-05-10T08:53:16.342Z,12.90
2019-05-10T08:55:43.359Z,13.40
2019-05-10T08:58:12.478Z,14.00
2019-05-10T09:00:53.824Z,14.10
2019-05-10T09:03:18.119Z,13.80
2019-05-10T09:05:43.244Z,13.30
2019-05-10T09:08:19.562Z,13.20
2019-05-10T09:10:42.277Z,13.20
2019-05-10T09:13:12.910Z,13.30
2019-05-10T09:15:51.467Z,12.90
2019-05-10T09:18:12.840Z,12.60
2019-05-10T09:20:42.359Z,12.00
2019-05-10T09:23:15.344Z,11.70
2019-05-10T09:25:42.581Z,11.70
2019-05-10T09:28:16.561Z,11.60
2019-05-10T09:30:54.163Z,11.70
2019-05-10T09:33:14.298Z,11.60
2019-05-10T09:35:46.790Z,11.80
2019-05-10T09:38:12.655Z,12.10
2019-05-10T09:40:50.682Z,12.00
2019-05-10T09:43:12.482Z,12.00
2019-05-10T09:45:42.321Z,11.70
2019-05-10T09:48:12.149Z,11.40
2019-05-10T09:50:46.305Z,11.50
2019-05-10T09:53:15.138Z,11.60
2019-05-10T09:55:45.476Z,11.80
2019-05-10T09:58:11.666Z,12.00
2019-05-10T10:00:40.057Z,12.20
2019-05-10T10:03:08.582Z,12.60
2019-05-10T10:05:39.738Z,13.40
2019-05-10T10:08:09.014Z,13.80
2019-05-10T10:10:37.380Z,13.90
2019-05-10T10:13:13.433Z,13.90
2019-05-10T10:15:37.275Z,13.70
2019-05-10T10:18:06.579Z,13.70
2019-05-10T10:20:40.674Z,14.10
2019-05-10T10:23:07.194Z,14.70
2019-05-10T10:25:40.539Z,16.50
2019-05-10T10:28:10.412Z,17.30
2019-05-10T10:30:37.333Z,18.30
2019-05-10T10:33:11.109Z,18.00
2019-05-10T10:35:37.824Z,18.00
2019-05-10T10:38:08.015Z,18.30
2019-05-10T10:40:44.086Z,18.90
2019-05-10T10:43:07.585Z,18.60
2019-05-10T10:45:37.670Z,17.90
2019-05-10T10:48:08.484Z,17.70
2019-05-10T10:50:36.612Z,17.30
2019-05-10T10:53:05.008Z,17.80
2019-05-10T10:55:36.937Z,16.50
2019-05-10T10:58:03.792Z,15.80
2019-05-10T11:00:34.687Z,15.20
2019-05-10T11:03:04.234Z,14.40
2019-05-10T11:05:32.654Z,15.10
2019-05-10T11:08:01.219Z,16.10
2019-05-10T11:10:31.366Z,16.80
2019-05-10T11:13:02.867Z,18.20
2019-05-10T11:15:35.857Z,18.90
2019-05-10T11:18:00.833Z,19.60
2019-05-10T11:20:31.547Z,19.30
2019-05-10T11:22:59.425Z,19.00
2019-05-10T11:25:28.134Z,19.30
2019-05-10T11:27:58.649Z,19.60
2019-05-10T11:30:26.784Z,20.20
2019-05-10T11:32:55.235Z,19.30
2019-05-10T11:35:28.389Z,19.90
2019-05-10T11:37:53.750Z,20.10
2019-05-10T11:40:29.856Z,20.20
2019-05-10T11:42:52.528Z,19.50
2019-05-10T11:45:21.048Z,19.40
2019-05-10T11:47:57.122Z,19.90
2019-05-10T11:50:28.805Z,19.70
2019-05-10T11:52:51.319Z,19.90
2019-05-10T11:55:21.580Z,20.30
2019-05-10T11:58:01.542Z,20.30
2019-05-10T12:00:29.255Z,20.80
2019-05-10T12:03:11.180Z,20.30
2019-05-10T12:05:26.378Z,19.10
2019-05-10T12:07:51.806Z,18.70
2019-05-10T12:13:06.528Z,16.90
2019-05-10T12:15:25.278Z,16.70
2019-05-10T12:17:58.489Z,16.50
2019-05-10T12:20:26.910Z,16.20
2019-05-10T12:22:52.328Z,15.50
2019-05-10T12:25:37.727Z,15.50
2019-05-10T12:26:17.861Z,17.50
2019-05-10T12:27:52.326Z,15.50
2019-05-10T12:30:21.669Z,16.40
2019-05-10T12:33:05.954Z,17.90
2019-05-10T12:35:21.479Z,18.60
2019-05-10T12:37:54.050Z,19.20
2019-05-10T12:40:23.871Z,19.60
2019-05-10T12:42:50.752Z,19.90
2019-05-10T12:45:23.042Z,20.00
2019-05-10T12:47:51.843Z,19.50
2019-05-10T12:50:20.853Z,18.50
2019-05-10T12:53:02.661Z,17.60
2019-05-10T12:55:19.606Z,17.30
2019-05-10T12:57:48.014Z,17.80
2019-05-10T13:00:17.644Z,17.80
2019-05-10T13:02:51.408Z,17.60
2019-05-10T13:05:16.648Z,17.70
2019-05-10T13:07:45.290Z,17.20
2019-05-10T13:10:15.497Z,17.00
2019-05-10T13:12:47.103Z,17.10
2019-05-10T13:15:15.829Z,16.90
2019-05-10T13:17:50.463Z,16.80
2019-05-10T13:20:15.129Z,16.50
2019-05-10T13:22:43.790Z,16.80
2019-05-10T13:25:12.493Z,17.70
2019-05-10T13:27:42.569Z,18.10
2019-05-10T13:30:12.476Z,18.20
2019-05-10T13:32:40.878Z,17.90
2019-05-10T13:35:09.583Z,17.70
2019-05-10T13:37:38.057Z,18.20
2019-05-10T13:40:08.037Z,18.70
2019-05-10T13:42:43.313Z,18.50
2019-05-10T13:45:07.295Z,18.30
2019-05-10T13:47:35.694Z,18.20
2019-05-10T13:50:08.212Z,17.40
2019-05-10T13:52:40.830Z,16.90
2019-05-10T13:55:07.014Z,16.40
2019-05-10T13:57:35.552Z,16.30
2019-05-10T14:00:06.524Z,16.50
2019-05-10T14:02:35.126Z,16.70
2019-05-10T14:05:04.270Z,17.00
2019-05-10T14:07:32.679Z,16.80
2019-05-10T14:10:01.400Z,16.70
2019-05-10T14:12:34.392Z,16.60
2019-05-10T14:15:08.589Z,16.70
2019-05-10T14:17:30.328Z,16.70
2019-05-10T14:19:58.882Z,16.70
2019-05-10T14:22:27.276Z,16.80
2019-05-10T14:24:59.210Z,16.50
2019-05-10T14:27:35.354Z,16.50
2019-05-10T14:29:59.799Z,16.80
2019-05-10T14:32:28.284Z,17.00
2019-05-10T14:34:56.956Z,17.00
2019-05-10T14:37:25.634Z,16.90
2019-05-10T14:39:54.403Z,16.60
2019-05-10T14:42:31.182Z,16.20
2019-05-10T14:44:53.479Z,16.10
2019-05-10T14:47:21.871Z,16.00
2019-05-10T14:49:50.603Z,15.80
2019-05-10T14:52:22.690Z,15.70
2019-05-10T14:54:55.308Z,16.00
2019-05-10T14:57:21.647Z,16.10
2019-05-10T14:59:50.368Z,16.50
2019-05-10T15:02:22.825Z,16.80
2019-05-10T15:04:49.188Z,16.70
2019-05-10T15:07:17.594Z,16.50
2019-05-10T15:09:46.030Z,16.50
2019-05-10T15:12:16.349Z,16.60
2019-05-10T15:14:44.826Z,16.30
2019-05-10T15:17:13.516Z,16.40
2019-05-10T15:19:41.934Z,16.80
2019-05-10T15:22:10.630Z,16.70
2019-05-10T15:24:39.123Z,16.40
2019-05-10T15:27:07.598Z,16.30
2019-05-10T15:29:36.040Z,16.30
2019-05-10T15:32:04.457Z,16.70
2019-05-10T15:34:32.933Z,16.50
2019-05-10T15:37:02.782Z,16.70
2019-05-10T15:39:31.557Z,16.90
2019-05-10T15:42:00.936Z,17.10
2019-05-10T15:44:31.425Z,16.90
2019-05-10T15:46:59.789Z,17.00
2019-05-10T15:49:28.259Z,16.90
2019-05-10T15:54:28.662Z,16.40
2019-05-10T15:56:57.108Z,16.20
2019-05-10T15:59:23.402Z,16.40
2019-05-10T15:59:25.639Z,16.00
2019-05-10T16:01:54.078Z,15.60
2019-05-10T16:04:22.645Z,15.70
2019-05-10T16:06:51.213Z,15.70
2019-05-10T16:09:19.992Z,15.70
2019-05-10T16:11:48.645Z,15.50
2019-05-10T16:14:17.079Z,15.70
2019-05-10T16:16:45.550Z,15.70
2019-05-10T16:19:18.494Z,15.40
2019-05-10T16:21:46.796Z,15.20
2019-05-10T16:24:25.340Z,15.00
2019-05-10T16:26:44.574Z,14.90
2019-05-10T16:29:13.082Z,14.90
2019-05-10T16:31:42.569Z,14.90
2019-05-10T16:34:11.073Z,15.00
2019-05-10T16:36:42.638Z,15.20
2019-05-10T16:39:11.391Z,15.30
2019-05-10T16:41:41.497Z,15.60
2019-05-10T16:44:09.989Z,15.80
2019-05-10T16:46:38.370Z,15.70
2019-05-10T16:49:10.069Z,15.50
2019-05-10T16:51:37.301Z,15.30
2019-05-10T16:54:05.787Z,15.10
2019-05-10T16:56:34.248Z,15.20
2019-05-10T16:59:03.001Z,15.20
2019-05-10T17:01:33.482Z,15.30
2019-05-10T17:04:01.889Z,15.50
2019-05-10T17:06:30.387Z,15.70
2019-05-10T17:08:59.068Z,15.80
2019-05-10T17:11:27.695Z,15.90
2019-05-10T17:13:56.279Z,16.00
2019-05-10T17:16:25.063Z,16.00
2019-05-10T17:18:55.172Z,15.90
2019-05-10T17:21:23.596Z,15.80
2019-05-10T17:23:52.037Z,15.50
2019-05-10T17:26:20.498Z,15.20
2019-05-10T17:28:48.910Z,15.10
2019-05-10T17:31:17.338Z,14.90
2019-05-10T17:33:45.762Z,14.80
2019-05-10T17:36:19.392Z,14.70
2019-05-10T17:38:47.154Z,14.70
2019-05-10T17:41:19.295Z,14.70
2019-05-10T17:43:45.247Z,14.60
2019-05-10T17:46:18.755Z,14.60
2019-05-10T17:48:47.360Z,14.50
2019-05-10T17:51:16.803Z,14.50
2019-05-10T17:53:45.237Z,14.40
2019-05-10T17:56:13.691Z,14.40
2019-05-10T17:58:42.467Z,14.40
2019-05-10T18:01:10.959Z,14.30
2019-05-10T18:03:39.628Z,14.30
2019-05-10T18:06:21.951Z,14.20
2019-05-10T18:08:38.309Z,14.10
2019-05-10T18:11:08.222Z,14.00
2019-05-10T18:13:40.757Z,13.80
2019-05-10T18:16:09.492Z,13.70
2019-05-10T18:18:46.380Z,13.60
2019-05-10T18:21:07.637Z,13.60
2019-05-10T18:23:36.166Z,13.40
2019-05-10T18:26:04.754Z,13.30
2019-05-10T18:28:33.418Z,13.20
2019-05-10T18:31:03.738Z,13.10
2019-05-10T18:33:32.506Z,13.10
2019-05-10T18:36:00.889Z,13.10
2019-05-10T18:38:30.962Z,13.00
2019-05-10T18:40:59.557Z,13.00
2019-05-10T18:43:27.968Z,12.90
2019-05-10T18:46:01.192Z,12.90
2019-05-10T18:48:26.507Z,12.90
2019-05-10T18:50:55.218Z,12.70
2019-05-10T18:53:23.907Z,12.70
2019-05-10T18:55:52.310Z,12.60
2019-05-10T18:58:23.281Z,12.50
2019-05-10T19:00:56.137Z,12.40
2019-05-10T19:03:21.117Z,12.40
2019-05-10T19:05:49.779Z,12.40
2019-05-10T19:08:18.206Z,12.30
2019-05-10T19:10:46.664Z,12.20
2019-05-10T19:13:15.737Z,12.10
2019-05-10T19:15:46.199Z,12.10
2019-05-10T19:18:17.774Z,12.00
2019-05-10T19:20:48.782Z,11.80
2019-05-10T19:23:19.482Z,11.80
2019-05-10T19:25:51.645Z,11.70
2019-05-10T19:28:20.933Z,11.70
2019-05-10T19:30:52.789Z,11.60
2019-05-10T19:33:19.771Z,11.60
2019-05-10T19:35:48.239Z,11.60
2019-05-10T19:38:16.840Z,11.60
2019-05-10T19:40:46.191Z,11.70
2019-05-10T19:43:15.216Z,11.80
2019-05-10T19:45:44.953Z,11.80
2019-05-10T19:48:13.424Z,11.80
2019-05-10T19:50:42.213Z,11.80
2019-05-10T19:53:10.604Z,11.80
2019-05-10T19:55:39.016Z,11.70
2019-05-10T19:58:07.409Z,11.60
2019-05-10T20:00:35.983Z,11.60
2019-05-10T20:03:04.958Z,11.60
2019-05-10T20:05:34.398Z,11.60
2019-05-10T20:08:02.821Z,11.50
2019-05-10T20:10:31.214Z,11.40
2019-05-10T20:12:59.772Z,11.30
2019-05-10T20:15:28.162Z,11.30
2019-05-10T20:17:56.906Z,11.30
2019-05-10T20:20:25.305Z,11.20
2019-05-10T20:22:53.725Z,11.30
2019-05-10T20:25:22.158Z,11.30
2019-05-10T20:27:50.563Z,11.20
2019-05-10T20:30:19.138Z,11.00
2019-05-10T20:32:47.585Z,11.00
2019-05-10T20:35:16.318Z,11.00
2019-05-10T20:38:00.264Z,11.00
2019-05-10T20:40:16.535Z,11.00
2019-05-10T20:42:44.938Z,10.90
2019-05-10T20:45:13.894Z,10.90
2019-05-10T20:47:42.292Z,10.90
2019-05-10T20:50:10.987Z,10.80
2019-05-10T20:52:39.420Z,10.80
2019-05-10T20:55:08.499Z,10.80
2019-05-10T20:57:36.936Z,10.80
2019-05-10T21:00:08.614Z,10.80
2019-05-10T21:02:37.839Z,10.80
2019-05-10T21:05:07.980Z,10.70
2019-05-10T21:07:36.809Z,10.80
2019-05-10T21:10:06.056Z,10.70
2019-05-10T21:12:37.421Z,10.70
2019-05-10T21:15:09.807Z,10.70
2019-05-10T21:17:38.213Z,10.60
2019-05-10T21:20:07.864Z,10.50
2019-05-10T21:22:36.506Z,10.50
2019-05-10T21:25:07.180Z,10.50
2019-05-10T21:27:35.594Z,10.50
2019-05-10T21:30:05.546Z,10.60
2019-05-10T21:32:34.186Z,10.60
2019-05-10T21:35:02.598Z,10.50
2019-05-10T21:37:31.003Z,10.50
2019-05-10T21:39:59.415Z,10.50
2019-05-10T21:42:27.817Z,10.40
2019-05-10T21:44:56.218Z,10.40
2019-05-10T21:47:24.889Z,10.50
2019-05-10T21:49:53.298Z,10.50
2019-05-10T21:52:21.714Z,10.50
2019-05-10T21:54:50.119Z,10.50
2019-05-10T21:57:18.526Z,10.50
2019-05-10T21:59:46.931Z,10.50
2019-05-10T22:02:15.480Z,10.50
2019-05-10T22:04:47.767Z,10.40
2019-05-10T22:07:14.593Z,10.30
2019-05-10T22:09:43.001Z,10.40
2019-05-10T22:12:11.406Z,10.40
2019-05-10T22:14:39.820Z,10.30
2019-05-10T22:17:08.464Z,10.20
2019-05-10T22:19:37.131Z,10.20
2019-05-10T22:22:05.543Z,10.10
2019-05-10T22:24:33.947Z,10.10
2019-05-10T22:27:02.350Z,10.10
2019-05-10T22:29:30.985Z,10.10
2019-05-10T22:31:59.634Z,10.10
2019-05-10T22:34:28.057Z,10.10
2019-05-10T22:36:56.446Z,10.00
2019-05-10T22:39:25.038Z,10.00
2019-05-10T22:41:53.449Z,9.90
2019-05-10T22:44:22.089Z,10.00
2019-05-10T22:46:50.490Z,10.00
2019-05-10T22:49:18.890Z,10.00
2019-05-10T22:51:47.294Z,10.10
2019-05-10T22:54:16.562Z,10.10
2019-05-10T22:56:45.195Z,10.00
2019-05-10T22:59:13.850Z,10.00
2019-05-10T23:01:42.252Z,10.10
2019-05-10T23:04:10.691Z,10.00
2019-05-10T23:06:39.085Z,10.00
2019-05-10T23:09:23.424Z,9.90
2019-05-10T23:11:38.746Z,9.80
2019-05-10T23:14:07.220Z,9.90
2019-05-10T23:16:35.615Z,9.90
2019-05-10T23:19:04.117Z,9.80
2019-05-10T23:21:32.602Z,9.90
2019-05-10T23:24:02.647Z,9.90
2019-05-10T23:26:31.325Z,9.90
2019-05-10T23:28:59.992Z,9.80
2019-05-10T23:31:28.396Z,9.80
2019-05-10T23:33:56.810Z,9.80
2019-05-10T23:36:25.458Z,9.70
2019-05-10T23:38:53.866Z,9.70
2019-05-10T23:41:22.278Z,9.70
2019-05-10T23:43:50.686Z,9.70
2019-05-10T23:46:19.350Z,9.70
2019-05-10T23:48:47.749Z,9.60
2019-05-10T23:51:16.155Z,9.60
2019-05-10T23:53:45.199Z,9.60
2019-05-10T23:56:13.603Z,9.60
2019-05-10T23:58:42.007Z,9.60
